sensor_id;sensor_type;location;lat;lon;timestamp;P1;durP1;ratioP1;P2;durP2;ratioP2
40827;SDS011;26549;50.918;5.338;2023-02-28T00:00:47;8.10;;;4.35;;
40827;SDS011;26549;50.918;5.338;2023-02-28T00:03:13;6.90;;;4.13;;
40827;SDS011;26549;50.918;5.338;2023-02-28T00:05:39;8.27;;;4.82;;
40827;SDS011;26549;50.918;5.338;2023-02-28T00:08:04;9.82;;;5.15;;
40827;SDS011;26549;50.918;5.338;2023-02-28T00:10:30;8.18;;;4.72;;
40827;SDS011;26549;50.918;5.338;2023-02-28T00:13:01;9.32;;;4.07;;
40827;SDS011;26549;50.918;5.338;2023-02-28T00:15:29;7.50;;;4.68;;
40827;SDS011;26549;50.918;5.338;2023-02-28T00:17:55;6.38;;;4.22;;
40827;SDS011;26549;50.918;5.338;2023-02-28T00:20:21;5.07;;;3.95;;
40827;SDS011;26549;50.918;5.338;2023-02-28T00:22:49;9.40;;;4.00;;
40827;SDS011;26549;50.918;5.338;2023-02-28T00:25:17;12.00;;;4.75;;
40827;SDS011;26549;50.918;5.338;2023-02-28T00:27:44;8.02;;;4.18;;
40827;SDS011;26549;50.918;5.338;2023-02-28T00:30:12;5.38;;;4.57;;
40827;SDS011;26549;50.918;5.338;2023-02-28T00:32:40;10.73;;;4.20;;
40827;SDS011;26549;50.918;5.338;2023-02-28T00:35:07;6.60;;;3.95;;
40827;SDS011;26549;50.918;5.338;2023-02-28T00:37:34;6.13;;;4.18;;
40827;SDS011;26549;50.918;5.338;2023-02-28T00:39:59;8.60;;;4.40;;
40827;SDS011;26549;50.918;5.338;2023-02-28T00:42:25;8.45;;;4.63;;
40827;SDS011;26549;50.918;5.338;2023-02-28T00:44:51;5.13;;;4.15;;
40827;SDS011;26549;50.918;5.338;2023-02-28T00:47:17;5.32;;;4.15;;
40827;SDS011;26549;50.918;5.338;2023-02-28T00:49:43;9.90;;;5.07;;
40827;SDS011;26549;50.918;5.338;2023-02-28T00:52:09;7.70;;;5.22;;
40827;SDS011;26549;50.918;5.338;2023-02-28T00:54:35;9.10;;;4.90;;
40827;SDS011;26549;50.918;5.338;2023-02-28T00:57:01;6.05;;;3.85;;
40827;SDS011;26549;50.918;5.338;2023-02-28T00:59:26;9.25;;;4.80;;
40827;SDS011;26549;50.918;5.338;2023-02-28T01:01:52;8.15;;;5.18;;
40827;SDS011;26549;50.918;5.338;2023-02-28T01:04:18;6.32;;;4.45;;
40827;SDS011;26549;50.918;5.338;2023-02-28T01:06:43;6.72;;;4.93;;
40827;SDS011;26549;50.918;5.338;2023-02-28T01:09:09;7.30;;;4.10;;
40827;SDS011;26549;50.918;5.338;2023-02-28T01:11:36;6.00;;;4.32;;
40827;SDS011;26549;50.918;5.338;2023-02-28T01:14:02;5.63;;;4.30;;
40827;SDS011;26549;50.918;5.338;2023-02-28T01:16:29;6.82;;;4.25;;
40827;SDS011;26549;50.918;5.338;2023-02-28T01:18:55;6.03;;;4.15;;
40827;SDS011;26549;50.918;5.338;2023-02-28T01:21:21;9.68;;;4.28;;
40827;SDS011;26549;50.918;5.338;2023-02-28T01:23:47;7.70;;;4.20;;
40827;SDS011;26549;50.918;5.338;2023-02-28T01:26:14;8.65;;;4.07;;
40827;SDS011;26549;50.918;5.338;2023-02-28T01:28:48;5.80;;;4.30;;
40827;SDS011;26549;50.918;5.338;2023-02-28T01:31:14;5.55;;;4.72;;
40827;SDS011;26549;50.918;5.338;2023-02-28T01:33:41;4.80;;;4.10;;
40827;SDS011;26549;50.918;5.338;2023-02-28T01:36:12;8.63;;;4.88;;
40827;SDS011;26549;50.918;5.338;2023-02-28T01:38:39;5.72;;;4.28;;
40827;SDS011;26549;50.918;5.338;2023-02-28T01:41:06;5.25;;;4.20;;
40827;SDS011;26549;50.918;5.338;2023-02-28T01:46:08;7.47;;;3.90;;
40827;SDS011;26549;50.918;5.338;2023-02-28T01:48:40;6.60;;;4.80;;
40827;SDS011;26549;50.918;5.338;2023-02-28T01:51:13;5.20;;;4.40;;
40827;SDS011;26549;50.918;5.338;2023-02-28T01:53:44;4.85;;;3.58;;
40827;SDS011;26549;50.918;5.338;2023-02-28T01:56:12;6.93;;;4.32;;
40827;SDS011;26549;50.918;5.338;2023-02-28T01:58:49;5.20;;;3.83;;
40827;SDS011;26549;50.918;5.338;2023-02-28T02:01:16;5.28;;;3.95;;
40827;SDS011;26549;50.918;5.338;2023-02-28T02:03:59;9.02;;;4.97;;
40827;SDS011;26549;50.918;5.338;2023-02-28T02:06:34;8.10;;;4.25;;
40827;SDS011;26549;50.918;5.338;2023-02-28T02:09:04;7.85;;;4.32;;
40827;SDS011;26549;50.918;5.338;2023-02-28T02:11:31;7.13;;;4.25;;
40827;SDS011;26549;50.918;5.338;2023-02-28T02:14:01;5.75;;;5.20;;
40827;SDS011;26549;50.918;5.338;2023-02-28T02:39:04;7.78;;;5.20;;
40827;SDS011;26549;50.918;5.338;2023-02-28T02:41:40;7.78;;;5.22;;
40827;SDS011;26549;50.918;5.338;2023-02-28T02:44:15;8.63;;;5.57;;
40827;SDS011;26549;50.918;5.338;2023-02-28T02:46:47;7.32;;;4.88;;
40827;SDS011;26549;50.918;5.338;2023-02-28T02:49:25;5.13;;;4.40;;
40827;SDS011;26549;50.918;5.338;2023-02-28T02:51:57;7.25;;;4.85;;
40827;SDS011;26549;50.918;5.338;2023-02-28T02:54:28;5.45;;;4.85;;
40827;SDS011;26549;50.918;5.338;2023-02-28T02:56:58;7.85;;;4.45;;
40827;SDS011;26549;50.918;5.338;2023-02-28T02:59:27;7.60;;;4.43;;
40827;SDS011;26549;50.918;5.338;2023-02-28T03:01:57;6.07;;;4.90;;
40827;SDS011;26549;50.918;5.338;2023-02-28T03:04:26;6.32;;;5.18;;
40827;SDS011;26549;50.918;5.338;2023-02-28T03:06:56;7.90;;;4.40;;
40827;SDS011;26549;50.918;5.338;2023-02-28T03:09:22;9.73;;;4.75;;
40827;SDS011;26549;50.918;5.338;2023-02-28T03:11:48;6.78;;;4.88;;
40827;SDS011;26549;50.918;5.338;2023-02-28T03:22:51;7.53;;;5.00;;
40827;SDS011;26549;50.918;5.338;2023-02-28T03:25:27;9.23;;;4.32;;
40827;SDS011;26549;50.918;5.338;2023-02-28T03:30:59;8.55;;;5.00;;
40827;SDS011;26549;50.918;5.338;2023-02-28T03:34:21;7.55;;;4.25;;
40827;SDS011;26549;50.918;5.338;2023-02-28T03:37:02;8.40;;;4.72;;
40827;SDS011;26549;50.918;5.338;2023-02-28T03:39:42;11.35;;;5.05;;
40827;SDS011;26549;50.918;5.338;2023-02-28T03:42:17;6.10;;;5.13;;
40827;SDS011;26549;50.918;5.338;2023-02-28T03:47:33;8.50;;;5.28;;
40827;SDS011;26549;50.918;5.338;2023-02-28T03:52:35;6.88;;;4.65;;
40827;SDS011;26549;50.918;5.338;2023-02-28T03:55:07;6.32;;;5.60;;
40827;SDS011;26549;50.918;5.338;2023-02-28T04:00:20;9.27;;;5.72;;
40827;SDS011;26549;50.918;5.338;2023-02-28T04:02:53;6.47;;;4.78;;
40827;SDS011;26549;50.918;5.338;2023-02-28T04:05:20;8.27;;;5.57;;
40827;SDS011;26549;50.918;5.338;2023-02-28T04:07:46;7.45;;;5.20;;
40827;SDS011;26549;50.918;5.338;2023-02-28T04:10:13;7.07;;;4.90;;
40827;SDS011;26549;50.918;5.338;2023-02-28T04:12:40;7.22;;;5.22;;
40827;SDS011;26549;50.918;5.338;2023-02-28T04:15:06;6.95;;;5.30;;
40827;SDS011;26549;50.918;5.338;2023-02-28T04:17:32;7.97;;;4.70;;
40827;SDS011;26549;50.918;5.338;2023-02-28T04:19:58;10.77;;;5.63;;
40827;SDS011;26549;50.918;5.338;2023-02-28T04:22:24;9.02;;;5.35;;
40827;SDS011;26549;50.918;5.338;2023-02-28T04:24:52;5.93;;;4.07;;
40827;SDS011;26549;50.918;5.338;2023-02-28T04:27:20;12.68;;;5.88;;
40827;SDS011;26549;50.918;5.338;2023-02-28T04:29:46;12.82;;;5.30;;
40827;SDS011;26549;50.918;5.338;2023-02-28T04:32:12;8.00;;;4.97;;
40827;SDS011;26549;50.918;5.338;2023-02-28T04:34:38;10.00;;;4.95;;
40827;SDS011;26549;50.918;5.338;2023-02-28T04:37:04;8.73;;;4.90;;
40827;SDS011;26549;50.918;5.338;2023-02-28T04:39:34;5.80;;;4.80;;
40827;SDS011;26549;50.918;5.338;2023-02-28T04:42:00;5.65;;;4.93;;
40827;SDS011;26549;50.918;5.338;2023-02-28T04:44:26;6.70;;;4.15;;
40827;SDS011;26549;50.918;5.338;2023-02-28T04:46:52;8.57;;;5.38;;
40827;SDS011;26549;50.918;5.338;2023-02-28T04:49:17;8.05;;;4.60;;
40827;SDS011;26549;50.918;5.338;2023-02-28T04:51:43;8.32;;;5.07;;
40827;SDS011;26549;50.918;5.338;2023-02-28T04:54:09;6.53;;;5.43;;
40827;SDS011;26549;50.918;5.338;2023-02-28T04:56:35;7.07;;;4.82;;
40827;SDS011;26549;50.918;5.338;2023-02-28T04:59:01;6.95;;;5.07;;
40827;SDS011;26549;50.918;5.338;2023-02-28T05:01:28;7.40;;;4.95;;
40827;SDS011;26549;50.918;5.338;2023-02-28T05:03:59;7.95;;;5.15;;
40827;SDS011;26549;50.918;5.338;2023-02-28T05:06:27;6.88;;;5.50;;
40827;SDS011;26549;50.918;5.338;2023-02-28T05:08:54;11.40;;;6.45;;
40827;SDS011;26549;50.918;5.338;2023-02-28T05:11:21;5.60;;;4.70;;
40827;SDS011;26549;50.918;5.338;2023-02-28T05:13:54;8.20;;;5.45;;
40827;SDS011;26549;50.918;5.338;2023-02-28T05:16:20;10.15;;;5.13;;
40827;SDS011;26549;50.918;5.338;2023-02-28T05:18:46;5.45;;;4.95;;
40827;SDS011;26549;50.918;5.338;2023-02-28T05:21:22;6.18;;;5.10;;
40827;SDS011;26549;50.918;5.338;2023-02-28T05:23:54;7.85;;;5.65;;
40827;SDS011;26549;50.918;5.338;2023-02-28T05:26:21;7.20;;;5.40;;
40827;SDS011;26549;50.918;5.338;2023-02-28T05:28:47;6.65;;;5.28;;
40827;SDS011;26549;50.918;5.338;2023-02-28T05:31:13;8.85;;;5.65;;
40827;SDS011;26549;50.918;5.338;2023-02-28T05:33:39;10.40;;;6.10;;
40827;SDS011;26549;50.918;5.338;2023-02-28T05:36:05;8.82;;;5.32;;
40827;SDS011;26549;50.918;5.338;2023-02-28T05:38:31;9.52;;;6.22;;
40827;SDS011;26549;50.918;5.338;2023-02-28T05:40:57;10.18;;;7.63;;
40827;SDS011;26549;50.918;5.338;2023-02-28T05:43:23;8.73;;;5.80;;
40827;SDS011;26549;50.918;5.338;2023-02-28T05:45:48;8.40;;;5.35;;
40827;SDS011;26549;50.918;5.338;2023-02-28T05:48:14;7.00;;;5.57;;
40827;SDS011;26549;50.918;5.338;2023-02-28T05:50:40;7.47;;;5.80;;
40827;SDS011;26549;50.918;5.338;2023-02-28T05:53:07;11.07;;;5.65;;
40827;SDS011;26549;50.918;5.338;2023-02-28T05:55:33;6.05;;;5.45;;
40827;SDS011;26549;50.918;5.338;2023-02-28T05:58:01;8.13;;;5.97;;
40827;SDS011;26549;50.918;5.338;2023-02-28T06:00:27;8.50;;;5.60;;
40827;SDS011;26549;50.918;5.338;2023-02-28T06:02:52;10.35;;;6.05;;
40827;SDS011;26549;50.918;5.338;2023-02-28T06:05:21;8.35;;;5.57;;
40827;SDS011;26549;50.918;5.338;2023-02-28T06:07:48;8.75;;;6.32;;
40827;SDS011;26549;50.918;5.338;2023-02-28T06:10:14;7.25;;;5.25;;
40827;SDS011;26549;50.918;5.338;2023-02-28T06:12:40;9.57;;;6.28;;
40827;SDS011;26549;50.918;5.338;2023-02-28T06:15:07;9.23;;;5.93;;
40827;SDS011;26549;50.918;5.338;2023-02-28T06:17:37;8.68;;;5.57;;
40827;SDS011;26549;50.918;5.338;2023-02-28T06:20:04;10.65;;;5.80;;
40827;SDS011;26549;50.918;5.338;2023-02-28T06:22:42;8.35;;;6.57;;
40827;SDS011;26549;50.918;5.338;2023-02-28T06:25:09;7.55;;;5.50;;
40827;SDS011;26549;50.918;5.338;2023-02-28T06:27:35;7.90;;;6.47;;
40827;SDS011;26549;50.918;5.338;2023-02-28T06:30:01;7.70;;;5.68;;
40827;SDS011;26549;50.918;5.338;2023-02-28T06:32:27;10.98;;;6.32;;
40827;SDS011;26549;50.918;5.338;2023-02-28T06:34:53;11.27;;;6.03;;
40827;SDS011;26549;50.918;5.338;2023-02-28T06:37:19;8.95;;;6.32;;
40827;SDS011;26549;50.918;5.338;2023-02-28T06:39:45;9.70;;;5.90;;
40827;SDS011;26549;50.918;5.338;2023-02-28T06:42:11;6.93;;;5.47;;
40827;SDS011;26549;50.918;5.338;2023-02-28T06:44:38;7.47;;;5.75;;
40827;SDS011;26549;50.918;5.338;2023-02-28T06:47:04;5.78;;;5.25;;
40827;SDS011;26549;50.918;5.338;2023-02-28T06:49:31;7.07;;;5.38;;
40827;SDS011;26549;50.918;5.338;2023-02-28T06:51:58;10.80;;;5.20;;
40827;SDS011;26549;50.918;5.338;2023-02-28T06:54:27;10.02;;;5.22;;
40827;SDS011;26549;50.918;5.338;2023-02-28T06:56:53;9.82;;;5.88;;
40827;SDS011;26549;50.918;5.338;2023-02-28T06:59:19;10.85;;;5.75;;
40827;SDS011;26549;50.918;5.338;2023-02-28T07:01:46;7.10;;;4.90;;
40827;SDS011;26549;50.918;5.338;2023-02-28T07:04:11;7.65;;;5.68;;
40827;SDS011;26549;50.918;5.338;2023-02-28T07:06:38;7.72;;;5.22;;
40827;SDS011;26549;50.918;5.338;2023-02-28T07:09:04;8.80;;;5.30;;
40827;SDS011;26549;50.918;5.338;2023-02-28T07:11:30;8.40;;;6.53;;
40827;SDS011;26549;50.918;5.338;2023-02-28T07:13:56;9.02;;;5.40;;
40827;SDS011;26549;50.918;5.338;2023-02-28T07:16:23;7.63;;;6.82;;
40827;SDS011;26549;50.918;5.338;2023-02-28T07:18:52;11.95;;;6.05;;
40827;SDS011;26549;50.918;5.338;2023-02-28T07:21:19;8.98;;;5.80;;
40827;SDS011;26549;50.918;5.338;2023-02-28T07:23:45;9.57;;;6.90;;
40827;SDS011;26549;50.918;5.338;2023-02-28T07:26:12;8.27;;;5.80;;
40827;SDS011;26549;50.918;5.338;2023-02-28T07:28:41;7.28;;;5.45;;
40827;SDS011;26549;50.918;5.338;2023-02-28T07:31:10;9.13;;;5.40;;
40827;SDS011;26549;50.918;5.338;2023-02-28T07:33:37;8.13;;;6.05;;
40827;SDS011;26549;50.918;5.338;2023-02-28T07:36:03;8.70;;;5.35;;
40827;SDS011;26549;50.918;5.338;2023-02-28T07:38:31;6.82;;;5.22;;
40827;SDS011;26549;50.918;5.338;2023-02-28T07:40:59;6.72;;;5.10;;
40827;SDS011;26549;50.918;5.338;2023-02-28T07:43:25;6.25;;;5.38;;
40827;SDS011;26549;50.918;5.338;2023-02-28T07:45:51;7.80;;;4.90;;
40827;SDS011;26549;50.918;5.338;2023-02-28T07:48:16;12.90;;;5.03;;
40827;SDS011;26549;50.918;5.338;2023-02-28T07:50:42;7.80;;;4.50;;
40827;SDS011;26549;50.918;5.338;2023-02-28T07:53:08;4.75;;;4.30;;
40827;SDS011;26549;50.918;5.338;2023-02-28T07:55:35;7.65;;;4.80;;
40827;SDS011;26549;50.918;5.338;2023-02-28T07:58:01;9.38;;;4.70;;
40827;SDS011;26549;50.918;5.338;2023-02-28T08:00:28;8.15;;;4.65;;
40827;SDS011;26549;50.918;5.338;2023-02-28T08:02:54;6.15;;;4.80;;
40827;SDS011;26549;50.918;5.338;2023-02-28T08:05:19;10.77;;;4.93;;
40827;SDS011;26549;50.918;5.338;2023-02-28T08:07:45;6.78;;;4.45;;
40827;SDS011;26549;50.918;5.338;2023-02-28T08:10:14;6.30;;;4.88;;
40827;SDS011;26549;50.918;5.338;2023-02-28T08:12:40;6.70;;;4.28;;
40827;SDS011;26549;50.918;5.338;2023-02-28T08:15:06;7.00;;;4.63;;
40827;SDS011;26549;50.918;5.338;2023-02-28T08:17:32;8.23;;;4.55;;
40827;SDS011;26549;50.918;5.338;2023-02-28T08:19:58;5.90;;;4.47;;
40827;SDS011;26549;50.918;5.338;2023-02-28T08:22:24;5.20;;;4.55;;
40827;SDS011;26549;50.918;5.338;2023-02-28T08:24:50;7.15;;;4.93;;
40827;SDS011;26549;50.918;5.338;2023-02-28T08:27:15;8.75;;;3.92;;
40827;SDS011;26549;50.918;5.338;2023-02-28T08:29:42;6.63;;;4.60;;
40827;SDS011;26549;50.918;5.338;2023-02-28T08:32:08;10.55;;;4.43;;
40827;SDS011;26549;50.918;5.338;2023-02-28T08:34:33;7.68;;;4.40;;
40827;SDS011;26549;50.918;5.338;2023-02-28T08:36:59;5.95;;;3.60;;
40827;SDS011;26549;50.918;5.338;2023-02-28T08:39:25;7.78;;;3.53;;
40827;SDS011;26549;50.918;5.338;2023-02-28T08:41:51;5.40;;;4.00;;
40827;SDS011;26549;50.918;5.338;2023-02-28T08:44:16;6.57;;;4.05;;
40827;SDS011;26549;50.918;5.338;2023-02-28T08:46:42;5.20;;;3.47;;
40827;SDS011;26549;50.918;5.338;2023-02-28T08:49:09;9.95;;;4.30;;
40827;SDS011;26549;50.918;5.338;2023-02-28T08:51:36;6.97;;;5.68;;
40827;SDS011;26549;50.918;5.338;2023-02-28T08:54:01;8.15;;;3.60;;
40827;SDS011;26549;50.918;5.338;2023-02-28T08:56:27;5.25;;;3.50;;
40827;SDS011;26549;50.918;5.338;2023-02-28T08:58:54;6.05;;;4.43;;
40827;SDS011;26549;50.918;5.338;2023-02-28T09:01:22;5.85;;;3.63;;
40827;SDS011;26549;50.918;5.338;2023-02-28T09:03:52;5.95;;;3.33;;
40827;SDS011;26549;50.918;5.338;2023-02-28T09:06:20;4.93;;;3.63;;
40827;SDS011;26549;50.918;5.338;2023-02-28T09:08:47;6.63;;;4.05;;
40827;SDS011;26549;50.918;5.338;2023-02-28T09:11:13;5.97;;;2.90;;
40827;SDS011;26549;50.918;5.338;2023-02-28T09:13:39;5.10;;;3.40;;
40827;SDS011;26549;50.918;5.338;2023-02-28T09:16:06;5.18;;;3.10;;
40827;SDS011;26549;50.918;5.338;2023-02-28T09:18:34;3.53;;;2.72;;
40827;SDS011;26549;50.918;5.338;2023-02-28T09:21:03;4.72;;;3.17;;
40827;SDS011;26549;50.918;5.338;2023-02-28T09:23:29;5.13;;;2.97;;
40827;SDS011;26549;50.918;5.338;2023-02-28T09:25:55;3.63;;;3.08;;
40827;SDS011;26549;50.918;5.338;2023-02-28T09:28:21;3.55;;;2.63;;
40827;SDS011;26549;50.918;5.338;2023-02-28T09:30:52;3.80;;;2.20;;
40827;SDS011;26549;50.918;5.338;2023-02-28T09:33:19;5.72;;;2.78;;
40827;SDS011;26549;50.918;5.338;2023-02-28T09:35:46;2.88;;;2.28;;
40827;SDS011;26549;50.918;5.338;2023-02-28T09:38:13;5.75;;;2.45;;
40827;SDS011;26549;50.918;5.338;2023-02-28T09:40:45;5.20;;;2.78;;
40827;SDS011;26549;50.918;5.338;2023-02-28T09:43:17;2.10;;;1.88;;
40827;SDS011;26549;50.918;5.338;2023-02-28T09:46:11;9.27;;;2.78;;
40827;SDS011;26549;50.918;5.338;2023-02-28T09:48:37;4.68;;;2.10;;
40827;SDS011;26549;50.918;5.338;2023-02-28T09:53:48;4.60;;;2.17;;
40827;SDS011;26549;50.918;5.338;2023-02-28T09:56:18;3.22;;;2.00;;
40827;SDS011;26549;50.918;5.338;2023-02-28T10:04:07;2.40;;;2.03;;
40827;SDS011;26549;50.918;5.338;2023-02-28T10:06:48;3.28;;;2.05;;
40827;SDS011;26549;50.918;5.338;2023-02-28T10:09:17;2.90;;;2.28;;
40827;SDS011;26549;50.918;5.338;2023-02-28T10:11:56;2.10;;;1.90;;
40827;SDS011;26549;50.918;5.338;2023-02-28T10:14:34;3.20;;;2.72;;
40827;SDS011;26549;50.918;5.338;2023-02-28T10:17:12;4.72;;;1.80;;
40827;SDS011;26549;50.918;5.338;2023-02-28T10:19:43;2.88;;;2.50;;
40827;SDS011;26549;50.918;5.338;2023-02-28T10:22:34;2.05;;;1.73;;
40827;SDS011;26549;50.918;5.338;2023-02-28T10:25:20;3.25;;;2.40;;
40827;SDS011;26549;50.918;5.338;2023-02-28T10:27:49;2.80;;;2.33;;
40827;SDS011;26549;50.918;5.338;2023-02-28T10:30:18;3.05;;;2.45;;
40827;SDS011;26549;50.918;5.338;2023-02-28T10:32:49;3.78;;;2.50;;
40827;SDS011;26549;50.918;5.338;2023-02-28T10:35:22;1.80;;;1.70;;
40827;SDS011;26549;50.918;5.338;2023-02-28T10:37:56;3.10;;;2.85;;
40827;SDS011;26549;50.918;5.338;2023-02-28T10:40:26;3.50;;;2.38;;
40827;SDS011;26549;50.918;5.338;2023-02-28T10:43:01;2.08;;;1.88;;
40827;SDS011;26549;50.918;5.338;2023-02-28T10:45:30;2.67;;;2.33;;
40827;SDS011;26549;50.918;5.338;2023-02-28T10:48:01;3.30;;;1.90;;
40827;SDS011;26549;50.918;5.338;2023-02-28T10:58:31;4.22;;;2.08;;
40827;SDS011;26549;50.918;5.338;2023-02-28T11:01:13;2.90;;;1.63;;
40827;SDS011;26549;50.918;5.338;2023-02-28T11:03:44;10.02;;;2.10;;
40827;SDS011;26549;50.918;5.338;2023-02-28T11:06:15;2.28;;;1.70;;
40827;SDS011;26549;50.918;5.338;2023-02-28T11:08:48;2.88;;;1.90;;
40827;SDS011;26549;50.918;5.338;2023-02-28T11:11:20;2.40;;;2.15;;
40827;SDS011;26549;50.918;5.338;2023-02-28T11:13:50;3.08;;;1.65;;
40827;SDS011;26549;50.918;5.338;2023-02-28T11:16:20;2.45;;;1.70;;
40827;SDS011;26549;50.918;5.338;2023-02-28T11:18:51;5.13;;;2.17;;
40827;SDS011;26549;50.918;5.338;2023-02-28T11:23:47;2.00;;;1.80;;
40827;SDS011;26549;50.918;5.338;2023-02-28T11:26:15;1.80;;;1.70;;
40827;SDS011;26549;50.918;5.338;2023-02-28T11:29:19;2.05;;;1.85;;
40827;SDS011;26549;50.918;5.338;2023-02-28T11:34:34;3.03;;;1.77;;
40827;SDS011;26549;50.918;5.338;2023-02-28T11:37:01;1.60;;;1.48;;
40827;SDS011;26549;50.918;5.338;2023-02-28T11:39:34;2.40;;;1.77;;
40827;SDS011;26549;50.918;5.338;2023-02-28T11:47:47;1.80;;;1.67;;
40827;SDS011;26549;50.918;5.338;2023-02-28T12:10:22;4.55;;;2.30;;
40827;SDS011;26549;50.918;5.338;2023-02-28T12:13:15;5.15;;;1.90;;
40827;SDS011;26549;50.918;5.338;2023-02-28T12:21:35;3.05;;;1.45;;
40827;SDS011;26549;50.918;5.338;2023-02-28T12:27:18;2.42;;;1.73;;
40827;SDS011;26549;50.918;5.338;2023-02-28T12:32:26;3.70;;;2.35;;
40827;SDS011;26549;50.918;5.338;2023-02-28T12:37:43;4.15;;;2.17;;
40827;SDS011;26549;50.918;5.338;2023-02-28T12:40:24;3.53;;;1.88;;
40827;SDS011;26549;50.918;5.338;2023-02-28T12:43:12;2.30;;;1.75;;
40827;SDS011;26549;50.918;5.338;2023-02-28T12:45:44;2.75;;;1.65;;
40827;SDS011;26549;50.918;5.338;2023-02-28T12:48:25;2.03;;;1.85;;
40827;SDS011;26549;50.918;5.338;2023-02-28T12:51:08;2.55;;;2.13;;
40827;SDS011;26549;50.918;5.338;2023-02-28T12:53:57;4.40;;;2.28;;
40827;SDS011;26549;50.918;5.338;2023-02-28T12:56:38;2.45;;;2.22;;
40827;SDS011;26549;50.918;5.338;2023-02-28T12:59:38;2.72;;;1.85;;
40827;SDS011;26549;50.918;5.338;2023-02-28T13:05:07;2.60;;;2.10;;
40827;SDS011;26549;50.918;5.338;2023-02-28T13:10:48;2.88;;;2.05;;
40827;SDS011;26549;50.918;5.338;2023-02-28T13:13:26;3.22;;;2.60;;
40827;SDS011;26549;50.918;5.338;2023-02-28T13:16:07;2.20;;;2.00;;
40827;SDS011;26549;50.918;5.338;2023-02-28T13:18:38;2.13;;;1.92;;
40827;SDS011;26549;50.918;5.338;2023-02-28T13:21:09;2.17;;;2.00;;
40827;SDS011;26549;50.918;5.338;2023-02-28T13:29:02;3.85;;;2.47;;
40827;SDS011;26549;50.918;5.338;2023-02-28T13:34:37;4.90;;;2.60;;
40827;SDS011;26549;50.918;5.338;2023-02-28T13:37:33;2.70;;;2.22;;
40827;SDS011;26549;50.918;5.338;2023-02-28T13:42:52;2.90;;;2.40;;
40827;SDS011;26549;50.918;5.338;2023-02-28T13:47:52;4.25;;;2.35;;
40827;SDS011;26549;50.918;5.338;2023-02-28T13:50:33;3.90;;;1.92;;
40827;SDS011;26549;50.918;5.338;2023-02-28T13:58:41;2.90;;;1.95;;
40827;SDS011;26549;50.918;5.338;2023-02-28T14:01:29;2.53;;;2.33;;
40827;SDS011;26549;50.918;5.338;2023-02-28T14:07:15;3.38;;;2.67;;
40827;SDS011;26549;50.918;5.338;2023-02-28T14:10:01;6.50;;;2.13;;
40827;SDS011;26549;50.918;5.338;2023-02-28T14:20:58;2.85;;;2.08;;
40827;SDS011;26549;50.918;5.338;2023-02-28T14:29:38;3.58;;;2.65;;
40827;SDS011;26549;50.918;5.338;2023-02-28T14:32:47;2.17;;;1.98;;
40827;SDS011;26549;50.918;5.338;2023-02-28T14:35:29;3.55;;;2.40;;
40827;SDS011;26549;50.918;5.338;2023-02-28T14:38:42;3.60;;;2.47;;
40827;SDS011;26549;50.918;5.338;2023-02-28T14:41:17;2.25;;;1.98;;
40827;SDS011;26549;50.918;5.338;2023-02-28T14:44:03;2.42;;;2.22;;
40827;SDS011;26549;50.918;5.338;2023-02-28T14:46:40;3.03;;;1.95;;
40827;SDS011;26549;50.918;5.338;2023-02-28T14:49:18;3.38;;;2.90;;
40827;SDS011;26549;50.918;5.338;2023-02-28T14:51:47;2.85;;;2.60;;
40827;SDS011;26549;50.918;5.338;2023-02-28T14:54:17;2.45;;;2.25;;
40827;SDS011;26549;50.918;5.338;2023-02-28T14:56:49;4.88;;;2.50;;
40827;SDS011;26549;50.918;5.338;2023-02-28T14:59:28;3.70;;;2.25;;
40827;SDS011;26549;50.918;5.338;2023-02-28T15:04:41;3.17;;;2.65;;
40827;SDS011;26549;50.918;5.338;2023-02-28T15:07:11;5.10;;;2.10;;
40827;SDS011;26549;50.918;5.338;2023-02-28T15:09:39;2.90;;;2.42;;
40827;SDS011;26549;50.918;5.338;2023-02-28T15:12:05;2.47;;;1.98;;
40827;SDS011;26549;50.918;5.338;2023-02-28T15:14:34;2.90;;;2.10;;
40827;SDS011;26549;50.918;5.338;2023-02-28T15:17:05;3.78;;;2.83;;
40827;SDS011;26549;50.918;5.338;2023-02-28T15:19:39;3.20;;;2.38;;
40827;SDS011;26549;50.918;5.338;2023-02-28T15:22:08;3.58;;;2.47;;
40827;SDS011;26549;50.918;5.338;2023-02-28T15:24:44;3.95;;;2.17;;
40827;SDS011;26549;50.918;5.338;2023-02-28T15:27:29;3.40;;;2.63;;
40827;SDS011;26549;50.918;5.338;2023-02-28T15:30:07;4.85;;;1.90;;
40827;SDS011;26549;50.918;5.338;2023-02-28T15:32:38;3.47;;;2.55;;
40827;SDS011;26549;50.918;5.338;2023-02-28T15:37:56;4.72;;;2.78;;
40827;SDS011;26549;50.918;5.338;2023-02-28T15:40:30;3.65;;;3.05;;
40827;SDS011;26549;50.918;5.338;2023-02-28T15:45:28;5.85;;;2.50;;
40827;SDS011;26549;50.918;5.338;2023-02-28T15:48:04;2.40;;;2.20;;
40827;SDS011;26549;50.918;5.338;2023-02-28T15:50:57;4.07;;;2.35;;
40827;SDS011;26549;50.918;5.338;2023-02-28T15:53:43;3.38;;;2.53;;
40827;SDS011;26549;50.918;5.338;2023-02-28T15:56:22;2.78;;;2.40;;
40827;SDS011;26549;50.918;5.338;2023-02-28T15:58:50;2.72;;;2.35;;
40827;SDS011;26549;50.918;5.338;2023-02-28T16:01:27;2.28;;;1.95;;
40827;SDS011;26549;50.918;5.338;2023-02-28T16:03:57;2.30;;;2.10;;
40827;SDS011;26549;50.918;5.338;2023-02-28T16:06:35;3.42;;;2.33;;
40827;SDS011;26549;50.918;5.338;2023-02-28T16:09:02;5.53;;;2.53;;
40827;SDS011;26549;50.918;5.338;2023-02-28T16:11:33;5.15;;;2.58;;
40827;SDS011;26549;50.918;5.338;2023-02-28T16:14:02;4.43;;;3.08;;
40827;SDS011;26549;50.918;5.338;2023-02-28T16:16:28;2.97;;;2.38;;
40827;SDS011;26549;50.918;5.338;2023-02-28T16:18:55;3.08;;;2.13;;
40827;SDS011;26549;50.918;5.338;2023-02-28T16:21:21;2.83;;;2.25;;
40827;SDS011;26549;50.918;5.338;2023-02-28T16:23:48;3.92;;;1.85;;
40827;SDS011;26549;50.918;5.338;2023-02-28T16:26:17;3.35;;;2.33;;
40827;SDS011;26549;50.918;5.338;2023-02-28T16:28:46;4.57;;;2.53;;
40827;SDS011;26549;50.918;5.338;2023-02-28T16:31:12;3.17;;;2.88;;
40827;SDS011;26549;50.918;5.338;2023-02-28T16:33:42;3.25;;;2.30;;
40827;SDS011;26549;50.918;5.338;2023-02-28T16:36:12;3.47;;;3.05;;
40827;SDS011;26549;50.918;5.338;2023-02-28T16:38:54;2.50;;;2.20;;
40827;SDS011;26549;50.918;5.338;2023-02-28T16:41:24;5.32;;;2.45;;
40827;SDS011;26549;50.918;5.338;2023-02-28T16:43:53;4.43;;;3.30;;
40827;SDS011;26549;50.918;5.338;2023-02-28T16:46:23;3.40;;;2.53;;
40827;SDS011;26549;50.918;5.338;2023-02-28T16:48:52;3.05;;;2.22;;
40827;SDS011;26549;50.918;5.338;2023-02-28T16:51:18;4.15;;;3.17;;
40827;SDS011;26549;50.918;5.338;2023-02-28T16:53:44;3.25;;;2.80;;
40827;SDS011;26549;50.918;5.338;2023-02-28T16:56:20;4.32;;;2.75;;
40827;SDS011;26549;50.918;5.338;2023-02-28T16:58:48;3.25;;;2.45;;
40827;SDS011;26549;50.918;5.338;2023-02-28T17:01:15;4.10;;;2.70;;
40827;SDS011;26549;50.918;5.338;2023-02-28T17:03:47;4.35;;;2.90;;
40827;SDS011;26549;50.918;5.338;2023-02-28T17:06:31;3.13;;;2.65;;
40827;SDS011;26549;50.918;5.338;2023-02-28T17:08:57;3.35;;;2.50;;
40827;SDS011;26549;50.918;5.338;2023-02-28T17:11:24;5.43;;;2.65;;
40827;SDS011;26549;50.918;5.338;2023-02-28T17:13:50;5.53;;;3.17;;
40827;SDS011;26549;50.918;5.338;2023-02-28T17:16:25;5.13;;;2.88;;
40827;SDS011;26549;50.918;5.338;2023-02-28T17:18:58;5.70;;;2.72;;
40827;SDS011;26549;50.918;5.338;2023-02-28T17:21:26;5.65;;;2.92;;
40827;SDS011;26549;50.918;5.338;2023-02-28T17:23:52;5.88;;;3.72;;
40827;SDS011;26549;50.918;5.338;2023-02-28T17:26:18;3.25;;;2.53;;
40827;SDS011;26549;50.918;5.338;2023-02-28T17:28:47;2.53;;;2.33;;
40827;SDS011;26549;50.918;5.338;2023-02-28T17:31:13;3.67;;;2.50;;
40827;SDS011;26549;50.918;5.338;2023-02-28T17:33:39;5.47;;;3.00;;
40827;SDS011;26549;50.918;5.338;2023-02-28T17:36:06;4.78;;;2.70;;
40827;SDS011;26549;50.918;5.338;2023-02-28T17:38:35;4.80;;;2.75;;
40827;SDS011;26549;50.918;5.338;2023-02-28T17:41:01;4.55;;;2.63;;
40827;SDS011;26549;50.918;5.338;2023-02-28T17:43:27;6.35;;;2.78;;